Time;durP1;ratioP1;P1;durP2;ratioP2;P2;SDS_P1;SDS_P2;PMS_P1;PMS_P2;Temp;Humidity;BMP_temperature;BMP_pressure;BME280_temperature;BME280_humidity;BME280_pressure;Samples;Min_cycle;Max_cycle;Signal;HPM_P1;HPM_P2
2023/03/07 00:01:29;;;;;;;;;;;;;;;;;;5093167;28;1861;-46
2023/03/07 00:03:56;;;;;;;;;;;;;;;;;;5093003;28;2015;-42
2023/03/07 00:06:24;;;;;;;;;;;;;;;;;;5092983;28;1907;-46
2023/03/07 00:08:52;;;;;;;;;;;;;;;;;;5085151;28;1856;-48
2023/03/07 00:11:20;;;;;;;;;;;;;;;;;;5072840;28;2049;-44
2023/03/07 00:13:47;;;;;;;;;;;;;;;;;;5072942;28;1941;-42
2023/03/07 00:16:16;;;;;;;;;;;;;;;;;;5072498;28;2137;-44
2023/03/07 00:18:43;;;;;;;;;;;;;;;;;;5072868;28;2035;-47
2023/03/07 00:21:12;;;;;;;;;;;;;;;;;;5072455;28;2003;-46
2023/03/07 00:23:40;;;;;;;;;;;;;;;;;;5072611;28;2177;-45
2023/03/07 00:26:09;;;;;;;;;;;;;;;;;;5072506;28;2065;-45
2023/03/07 00:28:38;;;;;;;;;;;;;;;;;;5072237;28;2128;-43
2023/03/07 00:31:06;;;;;;;;;;;;;;;;;;5072364;28;1996;-46
2023/03/07 00:33:34;;;;;;;;;;;;;;;;;;5054307;28;1973;-45
2023/03/07 00:36:03;;;;;;;;;;;;;;;;;;5053972;28;1968;-42
2023/03/07 00:38:31;;;;;;;;;;;;;;;;;;5072154;28;2146;-43
2023/03/07 00:41:05;;;;;;;;;;;;;;;;;;5054017;28;2044;-46
2023/03/07 00:43:33;;;;;;;;;;;;;;;;;;5054090;28;2140;-45
2023/03/07 00:46:00;;;;;;;;;;;;;;;;;;5072085;28;1949;-46
2023/03/07 00:48:28;;;;;;;;;;;;;;;;;;5054097;28;1860;-46
2023/03/07 00:50:55;;;;;;;;;;;;;;;;;;5053803;28;1972;-50
2023/03/07 00:53:24;;;;;;;;;;;;;;;;;;5053773;28;1908;-45
2023/03/07 00:55:55;;;;;;;;;;;;;;;;;;5074152;28;2213;-46
2023/03/07 00:58:23;;;;;;;;;;;;;;;;;;5073970;28;1850;-47
2023/03/07 01:00:50;;;;;;;;;;;;;;;;;;5092091;28;1805;-46
2023/03/07 01:03:18;;;;;;;;;;;;;;;;;;5073901;28;2454;-46
2023/03/07 01:05:46;;;;;;;;;;;;;;;;;;5069894;28;2022;-43
2023/03/07 01:08:14;;;;;;;;;;;;;;;;;;5071544;28;2126;-46
2023/03/07 01:10:42;;;;;;;;;;;;;;;;;;5053560;28;2185;-41
2023/03/07 01:13:09;;;;;;;;;;;;;;;;;;5071733;28;1796;-46
2023/03/07 01:15:37;;;;;;;;;;;;;;;;;;5071635;28;1903;-46
2023/03/07 01:18:05;;;;;;;;;;;;;;;;;;5052747;28;2473;-48
2023/03/07 01:20:34;;;;;;;;;;;;;;;;;;5071370;28;2212;-41
2023/03/07 01:23:02;;;;;;;;;;;;;;;;;;5071409;28;1962;-45
2023/03/07 01:25:29;;;;;;;;;;;;;;;;;;5071544;28;1665;-44
2023/03/07 01:27:57;;;;;;;;;;;;;;;;;;5053434;28;1976;-45
2023/03/07 01:30:27;;;;;;;;;;;;;;;;;;5053083;28;1813;-45
2023/03/07 01:32:58;;;;;;;;;;;;;;;;;;5071187;28;2064;-48
2023/03/07 01:35:26;;;;;;;;;;;;;;;;;;5070995;28;1913;-43
2023/03/07 01:37:55;;;;;;;;;;;;;;;;;;5053171;28;1967;-46
2023/03/07 01:40:23;;;;;;;;;;;;;;;;;;5070034;28;1994;-45
2023/03/07 01:42:52;;;;;;;;;;;;;;;;;;5053053;28;1793;-43
2023/03/07 01:45:34;;;;;;;;;;;;;;;;;;5069617;28;2033;-45
2023/03/07 01:48:03;;;;;;;;;;;;;;;;;;5053176;28;1806;-48
2023/03/07 01:50:31;;;;;;;;;;;;;;;;;;5052985;28;1899;-46
2023/03/07 01:52:59;;;;;;;;;;;;;;;;;;5071212;28;1849;-49
2023/03/07 01:55:30;;;;;;;;;;;;;;;;;;5052733;28;1995;-43
2023/03/07 01:58:07;;;;;;;;;;;;;;;;;;5069751;28;1963;-47
2023/03/07 02:00:37;;;;;;;;;;;;;;;;;;5069484;28;2047;-43
2023/03/07 02:03:11;;;;;;;;;;;;;;;;;;5071092;28;1499;-44
2023/03/07 02:05:47;;;;;;;;;;;;;;;;;;5069838;28;1980;-47
2023/03/07 02:08:15;;;;;;;;;;;;;;;;;;5055442;28;2098;-43
2023/03/07 02:10:42;;;;;;;;;;;;;;;;;;5093280;28;2054;-43
2023/03/07 02:13:09;;;;;;;;;;;;;;;;;;5095610;28;2015;-45
2023/03/07 02:15:38;;;;;;;;;;;;;;;;;;5077048;28;1979;-49
2023/03/07 02:18:06;;;;;;;;;;;;;;;;;;5076826;28;2093;-47
2023/03/07 02:20:33;;;;;;;;;;;;;;;;;;5095229;28;1885;-45
2023/03/07 02:23:00;;;;;;;;;;;;;;;;;;5094733;28;2178;-43
2023/03/07 02:25:28;;;;;;;;;;;;;;;;;;5095125;28;2115;-43
2023/03/07 02:27:56;;;;;;;;;;;;;;;;;;5073396;28;2167;-46
2023/03/07 02:30:24;;;;;;;;;;;;;;;;;;5056296;28;1950;-49
2023/03/07 02:32:52;;;;;;;;;;;;;;;;;;5056431;28;2557;-42
2023/03/07 02:35:23;;;;;;;;;;;;;;;;;;5074306;28;1982;-45
2023/03/07 02:37:58;;;;;;;;;;;;;;;;;;5091465;28;2113;-45
2023/03/07 02:40:28;;;;;;;;;;;;;;;;;;5094793;28;2025;-46
2023/03/07 02:42:57;;;;;;;;;;;;;;;;;;5076330;28;2026;-43
2023/03/07 02:45:25;;;;;;;;;;;;;;;;;;5072716;28;2077;-45
2023/03/07 02:47:52;;;;;;;;;;;;;;;;;;5056384;28;2017;-43
2023/03/07 02:50:19;;;;;;;;;;;;;;;;;;5056222;28;2222;-49
2023/03/07 02:52:52;;;;;;;;;;;;;;;;;;5056091;28;1972;-44
2023/03/07 02:55:20;;;;;;;;;;;;;;;;;;5074379;28;1994;-46
2023/03/07 02:57:54;;;;;;;;;;;;;;;;;;5055959;28;2107;-46
2023/03/07 03:00:21;;;;;;;;;;;;;;;;;;5074048;28;1731;-47
2023/03/07 03:02:49;;;;;;;;;;;;;;;;;;5073843;28;1960;-48
2023/03/07 03:05:18;;;;;;;;;;;;;;;;;;5073801;28;2098;-46
2023/03/07 03:07:46;;;;;;;;;;;;;;;;;;5073911;28;1809;-50
2023/03/07 03:10:13;;;;;;;;;;;;;;;;;;5074005;28;2025;-47
2023/03/07 03:12:40;;;;;;;;;;;;;;;;;;5073962;28;1977;-49
2023/03/07 03:15:08;;;;;;;;;;;;;;;;;;5055978;28;2027;-44
2023/03/07 03:17:35;;;;;;;;;;;;;;;;;;5055420;28;2072;-46
2023/03/07 03:20:07;;;;;;;;;;;;;;;;;;5055857;28;1993;-44
2023/03/07 03:22:34;;;;;;;;;;;;;;;;;;5072355;28;2213;-45
2023/03/07 03:25:04;;;;;;;;;;;;;;;;;;5055567;28;1775;-42
2023/03/07 03:27:32;;;;;;;;;;;;;;;;;;5055343;28;1963;-46
2023/03/07 03:29:59;;;;;;;;;;;;;;;;;;5055549;28;2127;-46
2023/03/07 03:32:26;;;;;;;;;;;;;;;;;;5055348;28;1895;-49
2023/03/07 03:34:53;;;;;;;;;;;;;;;;;;5073299;28;2165;-46
2023/03/07 03:37:21;;;;;;;;;;;;;;;;;;5073289;28;2044;-44
2023/03/07 03:39:48;;;;;;;;;;;;;;;;;;5055198;28;2098;-46
2023/03/07 03:42:16;;;;;;;;;;;;;;;;;;5055595;28;1984;-45
2023/03/07 03:44:44;;;;;;;;;;;;;;;;;;5055598;28;1924;-45
2023/03/07 03:47:12;;;;;;;;;;;;;;;;;;5073081;28;1924;-43
2023/03/07 03:49:41;;;;;;;;;;;;;;;;;;5055207;28;1938;-42
2023/03/07 03:52:08;;;;;;;;;;;;;;;;;;5055146;28;2095;-48
2023/03/07 03:54:36;;;;;;;;;;;;;;;;;;5072921;28;1829;-45
2023/03/07 03:57:03;;;;;;;;;;;;;;;;;;5085301;28;1914;-48
2023/03/07 03:59:30;;;;;;;;;;;;;;;;;;5093420;28;2010;-43
2023/03/07 04:01:57;;;;;;;;;;;;;;;;;;5071473;28;1976;-42
2023/03/07 04:04:25;;;;;;;;;;;;;;;;;;5072963;28;2093;-45
2023/03/07 04:06:52;;;;;;;;;;;;;;;;;;5072797;28;1929;-47
2023/03/07 04:09:19;;;;;;;;;;;;;;;;;;5072535;28;1904;-43
2023/03/07 04:11:47;;;;;;;;;;;;;;;;;;5073130;28;2181;-48
2023/03/07 04:14:15;;;;;;;;;;;;;;;;;;5054772;28;2221;-46
2023/03/07 04:16:42;;;;;;;;;;;;;;;;;;5072439;28;1979;-47
2023/03/07 04:19:11;;;;;;;;;;;;;;;;;;5071934;28;1996;-41
2023/03/07 04:21:41;;;;;;;;;;;;;;;;;;5054480;28;2113;-44
2023/03/07 04:24:08;;;;;;;;;;;;;;;;;;5054629;28;2014;-43
2023/03/07 04:26:38;;;;;;;;;;;;;;;;;;5072390;28;2159;-43
2023/03/07 04:29:05;;;;;;;;;;;;;;;;;;5072556;28;1987;-42
2023/03/07 04:31:55;;;;;;;;;;;;;;;;;;5071839;28;1960;-44
2023/03/07 04:34:24;;;;;;;;;;;;;;;;;;5037608;28;1849;-44
2023/03/07 04:36:51;;;;;;;;;;;;;;;;;;5050610;28;1992;-45
2023/03/07 04:39:18;;;;;;;;;;;;;;;;;;5052393;28;2088;-46
2023/03/07 04:41:46;;;;;;;;;;;;;;;;;;5051164;28;1958;-48
2023/03/07 04:44:17;;;;;;;;;;;;;;;;;;5052206;28;1925;-44
2023/03/07 04:46:47;;;;;;;;;;;;;;;;;;5052084;28;2291;-43
2023/03/07 04:49:15;;;;;;;;;;;;;;;;;;5052217;28;2010;-47
2023/03/07 04:51:43;;;;;;;;;;;;;;;;;;5050564;28;1987;-43
2023/03/07 04:54:13;;;;;;;;;;;;;;;;;;5050662;28;2450;-46
2023/03/07 04:56:41;;;;;;;;;;;;;;;;;;5051895;28;2090;-41
2023/03/07 04:59:10;;;;;;;;;;;;;;;;;;5050347;28;2119;-46
2023/03/07 05:01:37;;;;;;;;;;;;;;;;;;5051868;28;2070;-46
2023/03/07 05:04:04;;;;;;;;;;;;;;;;;;5067037;28;1804;-43
2023/03/07 05:06:32;;;;;;;;;;;;;;;;;;5051503;28;1915;-45
2023/03/07 05:09:00;;;;;;;;;;;;;;;;;;5056150;28;1979;-48
2023/03/07 05:11:28;;;;;;;;;;;;;;;;;;5056803;28;1824;-41
2023/03/07 05:13:59;;;;;;;;;;;;;;;;;;5050294;28;1972;-44
2023/03/07 05:16:26;;;;;;;;;;;;;;;;;;5051035;28;2123;-42
2023/03/07 05:18:53;;;;;;;;;;;;;;;;;;5050093;28;2022;-45
2023/03/07 05:21:21;;;;;;;;;;;;;;;;;;5051609;28;1831;-47
2023/03/07 05:23:49;;;;;;;;;;;;;;;;;;5050176;28;1867;-48
2023/03/07 05:26:16;;;;;;;;;;;;;;;;;;5051355;28;2049;-43
2023/03/07 05:28:43;;;;;;;;;;;;;;;;;;5051363;28;1936;-42
2023/03/07 05:31:11;;;;;;;;;;;;;;;;;;5051408;28;2298;-42
2023/03/07 05:33:41;;;;;;;;;;;;;;;;;;5051279;28;1890;-45
2023/03/07 05:36:09;;;;;;;;;;;;;;;;;;5050058;28;1895;-44
2023/03/07 05:38:37;;;;;;;;;;;;;;;;;;5049750;28;2007;-45
2023/03/07 05:41:04;;;;;;;;;;;;;;;;;;5049847;28;1873;-42
2023/03/07 05:43:31;;;;;;;;;;;;;;;;;;5049839;28;2491;-45
2023/03/07 05:45:59;;;;;;;;;;;;;;;;;;4981970;28;6371;-43
2023/03/07 05:48:26;;;;;;;;;;;;;;;;;;5049714;28;1994;-42
2023/03/07 05:50:53;;;;;;;;;;;;;;;;;;5051225;28;2220;-46
2023/03/07 05:53:20;;;;;;;;;;;;;;;;;;5051160;28;2022;-42
2023/03/07 05:55:49;;;;;;;;;;;;;;;;;;5049450;28;1979;-44
2023/03/07 05:58:17;;;;;;;;;;;;;;;;;;5049649;28;1989;-43
2023/03/07 06:00:46;;;;;;;;;;;;;;;;;;5049685;28;1928;-42
2023/03/07 06:03:13;;;;;;;;;;;;;;;;;;5049791;28;2062;-44
2023/03/07 06:05:41;;;;;;;;;;;;;;;;;;5049592;28;1870;-42
2023/03/07 06:08:08;;;;;;;;;;;;;;;;;;5050682;28;1996;-44
2023/03/07 06:10:38;;;;;;;;;;;;;;;;;;5050832;28;2144;-48
2023/03/07 06:13:14;;;;;;;;;;;;;;;;;;5049412;28;2193;-44
2023/03/07 06:15:41;;;;;;;;;;;;;;;;;;5050891;28;2172;-46
2023/03/07 06:18:09;;;;;;;;;;;;;;;;;;5049269;28;2192;-49
2023/03/07 06:20:37;;;;;;;;;;;;;;;;;;5049505;28;2020;-47
2023/03/07 06:23:05;;;;;;;;;;;;;;;;;;5049496;28;2015;-44
2023/03/07 06:25:32;;;;;;;;;;;;;;;;;;5049407;28;1962;-47
2023/03/07 06:28:00;;;;;;;;;;;;;;;;;;5049374;28;1998;-43
2023/03/07 06:30:30;;;;;;;;;;;;;;;;;;5049269;28;2041;-44
2023/03/07 06:32:57;;;;;;;;;;;;;;;;;;5050749;28;1914;-43
2023/03/07 06:35:24;;;;;;;;;;;;;;;;;;5049264;28;2066;-49
2023/03/07 06:37:51;;;;;;;;;;;;;;;;;;5049105;28;1934;-46
2023/03/07 06:40:19;;;;;;;;;;;;;;;;;;5049310;28;2181;-45
2023/03/07 06:42:46;;;;;;;;;;;;;;;;;;5049299;28;2161;-50
2023/03/07 06:45:15;;;;;;;;;;;;;;;;;;5049043;28;2103;-43
2023/03/07 06:47:42;;;;;;;;;;;;;;;;;;5050344;28;2002;-47
2023/03/07 06:50:10;;;;;;;;;;;;;;;;;;5049238;28;2051;-45
2023/03/07 06:52:38;;;;;;;;;;;;;;;;;;5049216;28;2115;-43
2023/03/07 06:55:05;;;;;;;;;;;;;;;;;;5049145;28;1989;-43
2023/03/07 06:57:34;;;;;;;;;;;;;;;;;;5052266;28;2068;-50
2023/03/07 07:00:05;;;;;;;;;;;;;;;;;;5052564;28;2046;-45
2023/03/07 07:02:35;;;;;;;;;;;;;;;;;;5054061;28;2111;-45
2023/03/07 07:05:03;;;;;;;;;;;;;;;;;;5036498;28;2091;-53
2023/03/07 07:07:30;;;;;;;;;;;;;;;;;;5052527;28;1774;-42
2023/03/07 07:09:58;;;;;;;;;;;;;;;;;;5052894;28;2055;-48
2023/03/07 07:12:25;;;;;;;;;;;;;;;;;;5052720;28;2033;-41
2023/03/07 07:14:53;;;;;;;;;;;;;;;;;;5052477;28;1949;-46
2023/03/07 07:17:21;;;;;;;;;;;;;;;;;;5053808;28;2068;-43
2023/03/07 07:19:48;;;;;;;;;;;;;;;;;;5052341;28;1967;-50
2023/03/07 07:22:16;;;;;;;;;;;;;;;;;;5053577;28;2139;-47
2023/03/07 07:24:44;;;;;;;;;;;;;;;;;;5052431;28;1795;-43
2023/03/07 07:27:11;;;;;;;;;;;;;;;;;;5052183;28;1989;-42
2023/03/07 07:29:38;;;;;;;;;;;;;;;;;;5052078;28;1859;-46
2023/03/07 07:32:07;;;;;;;;;;;;;;;;;;5052328;28;1638;-47
2023/03/07 07:34:34;;;;;;;;;;;;;;;;;;5053621;28;2308;-51
2023/03/07 07:37:02;;;;;;;;;;;;;;;;;;5037909;28;9999;-43
2023/03/07 07:39:29;;;;;;;;;;;;;;;;;;5013528;28;2169;-49
2023/03/07 07:41:56;;;;;;;;;;;;;;;;;;5012419;28;2062;-44
2023/03/07 07:44:29;;;;;;;;;;;;;;;;;;5013662;28;1994;-45
2023/03/07 07:47:01;;;;;;;;;;;;;;;;;;5012387;28;2073;-45
2023/03/07 07:49:28;;;;;;;;;;;;;;;;;;5012489;28;2083;-51
2023/03/07 07:51:56;;;;;;;;;;;;;;;;;;5011886;28;2086;-53
2023/03/07 07:54:24;;;;;;;;;;;;;;;;;;5012175;28;2103;-46
2023/03/07 07:56:51;;;;;;;;;;;;;;;;;;5013232;28;1972;-43
2023/03/07 07:59:20;;;;;;;;;;;;;;;;;;5011848;28;2102;-47
2023/03/07 08:01:47;;;;;;;;;;;;;;;;;;5018713;28;1816;-49
2023/03/07 08:04:14;;;;;;;;;;;;;;;;;;5033039;28;2075;-50
2023/03/07 08:06:43;;;;;;;;;;;;;;;;;;5032984;28;2055;-48
2023/03/07 08:09:10;;;;;;;;;;;;;;;;;;5032094;28;2091;-49
2023/03/07 08:11:37;;;;;;;;;;;;;;;;;;5032792;28;2027;-46
2023/03/07 08:14:04;;;;;;;;;;;;;;;;;;5033085;28;1989;-44
2023/03/07 08:16:31;;;;;;;;;;;;;;;;;;5033230;28;1978;-46
2023/03/07 08:18:59;;;;;;;;;;;;;;;;;;5032387;28;1938;-44
2023/03/07 08:21:27;;;;;;;;;;;;;;;;;;5032639;28;2067;-42
2023/03/07 08:23:54;;;;;;;;;;;;;;;;;;5032730;28;1980;-44
2023/03/07 08:26:21;;;;;;;;;;;;;;;;;;5032581;28;1892;-43
2023/03/07 08:28:49;;;;;;;;;;;;;;;;;;5032535;28;2073;-40
2023/03/07 08:31:17;;;;;;;;;;;;;;;;;;5032675;28;2133;-43
2023/03/07 08:33:45;;;;;;;;;;;;;;;;;;5032212;28;2041;-42
2023/03/07 08:36:13;;;;;;;;;;;;;;;;;;5045332;28;1799;-43
2023/03/07 08:38:40;;;;;;;;;;;;;;;;;;5052260;28;1977;-53
2023/03/07 08:41:08;;;;;;;;;;;;;;;;;;5052190;28;2186;-42
2023/03/07 08:43:36;;;;;;;;;;;;;;;;;;5052320;28;2200;-41
2023/03/07 08:46:03;;;;;;;;;;;;;;;;;;5052298;28;2152;-44
2023/03/07 08:48:30;;;;;;;;;;;;;;;;;;5052069;28;1990;-49
2023/03/07 08:51:02;;;;;;;;;;;;;;;;;;5052209;28;2030;-44
2023/03/07 08:53:29;;;;;;;;;;;;;;;;;;5051969;28;1937;-44
2023/03/07 08:55:57;;;;;;;;;;;;;;;;;;5052004;28;1847;-44
2023/03/07 08:58:24;;;;;;;;;;;;;;;;;;5033820;28;2322;-48
2023/03/07 09:00:52;;;;;;;;;;;;;;;;;;5051973;28;1903;-42
2023/03/07 09:03:19;;;;;;;;;;;;;;;;;;5051847;28;1851;-48
2023/03/07 09:05:46;;;;;;;;;;;;;;;;;;5051649;28;1992;-52
2023/03/07 09:08:13;;;;;;;;;;;;;;;;;;5051952;28;2032;-43
2023/03/07 09:10:41;;;;;;;;;;;;;;;;;;5051676;28;2026;-44
2023/03/07 09:13:08;;;;;;;;;;;;;;;;;;5051919;28;2156;-43
2023/03/07 09:15:37;;;;;;;;;;;;;;;;;;5051746;28;2355;-44
2023/03/07 09:18:05;;;;;;;;;;;;;;;;;;5051788;28;2075;-50
2023/03/07 09:20:32;;;;;;;;;;;;;;;;;;5050571;28;1940;-42
2023/03/07 09:22:59;;;;;;;;;;;;;;;;;;5051595;28;1969;-43
2023/03/07 09:25:27;;;;;;;;;;;;;;;;;;5051654;28;2010;-47
2023/03/07 09:27:56;;;;;;;;;;;;;;;;;;5051418;28;2010;-45
2023/03/07 09:30:26;;;;;;;;;;;;;;;;;;5051360;28;1857;-44
2023/03/07 09:32:53;;;;;;;;;;;;;;;;;;5050926;28;1930;-42
2023/03/07 09:35:22;;;;;;;;;;;;;;;;;;5050248;28;1954;-41
2023/03/07 09:37:50;;;;;;;;;;;;;;;;;;5049857;28;1873;-44
2023/03/07 09:40:18;;;;;;;;;;;;;;;;;;5050966;28;1967;-41
2023/03/07 09:42:57;;;;;;;;;;;;;;;;;;5050893;28;2019;-42
2023/03/07 09:45:41;;;;;;;;;;;;;;;;;;5033402;28;1853;-45
2023/03/07 09:48:23;;;;;;;;;;;;;;;;;;5033365;28;2003;-43
2023/03/07 09:51:06;;;;;;;;;;;;;;;;;;5050916;28;1980;-48
2023/03/07 09:53:37;;;;;;;;;;;;;;;;;;5051374;28;1930;-48
2023/03/07 09:56:07;;;;;;;;;;;;;;;;;;5050970;28;1916;-50
2023/03/07 09:58:37;;;;;;;;;;;;;;;;;;5051063;28;2008;-46
2023/03/07 10:01:07;;;;;;;;;;;;;;;;;;5050848;28;2010;-47
2023/03/07 10:03:37;;;;;;;;;;;;;;;;;;5050925;28;1960;-47
2023/03/07 10:06:18;;;;;;;;;;;;;;;;;;5051001;28;2031;-46
2023/03/07 10:08:45;;;;;;;;;;;;;;;;;;5050781;28;1918;-50
2023/03/07 10:11:18;;;;;;;;;;;;;;;;;;5050904;28;2037;-49
2023/03/07 10:13:51;;;;;;;;;;;;;;;;;;5050704;28;1964;-48
2023/03/07 10:16:21;;;;;;;;;;;;;;;;;;5050895;28;2164;-44
2023/03/07 10:18:57;;;;;;;;;;;;;;;;;;5050747;28;2483;-43
2023/03/07 10:21:37;;;;;;;;;;;;;;;;;;5050635;28;1976;-44
2023/03/07 10:24:04;;;;;;;;;;;;;;;;;;5050674;28;1831;-46
2023/03/07 10:26:33;;;;;;;;;;;;;;;;;;5051094;28;2082;-44
2023/03/07 10:29:01;;;;;;;;;;;;;;;;;;5050825;28;1767;-47
2023/03/07 10:31:33;;;;;;;;;;;;;;;;;;5052523;28;1992;-44
2023/03/07 10:34:07;;;;;;;;;;;;;;;;;;5054758;28;1901;-48
2023/03/07 10:36:37;;;;;;;;;;;;;;;;;;5054471;28;2241;-42
2023/03/07 10:39:10;;;;;;;;;;;;;;;;;;5054748;28;2470;-44
2023/03/07 10:41:37;;;;;;;;;;;;;;;;;;5054475;28;1970;-47
2023/03/07 10:44:04;;;;;;;;;;;;;;;;;;5054439;28;2053;-48
2023/03/07 10:46:34;;;;;;;;;;;;;;;;;;5054483;28;1828;-48
2023/03/07 10:49:05;;;;;;;;;;;;;;;;;;5054315;28;1946;-43
2023/03/07 10:51:55;;;;;;;;;;;;;;;;;;5054271;28;2065;-46
2023/03/07 10:54:29;;;;;;;;;;;;;;;;;;5054129;28;1780;-48
2023/03/07 10:57:04;;;;;;;;;;;;;;;;;;5054288;28;1684;-45
2023/03/07 10:59:31;;;;;;;;;;;;;;;;;;5054006;28;1967;-48
2023/03/07 11:01:59;;;;;;;;;;;;;;;;;;5054051;28;2021;-45
2023/03/07 11:04:29;;;;;;;;;;;;;;;;;;5054003;28;1955;-49
2023/03/07 11:06:57;;;;;;;;;;;;;;;;;;5053938;28;1915;-48
2023/03/07 11:09:25;;;;;;;;;;;;;;;;;;5053788;28;1959;-47
2023/03/07 11:12:04;;;;;;;;;;;;;;;;;;5054228;28;1855;-49
2023/03/07 11:14:50;;;;;;;;;;;;;;;;;;5053764;28;2376;-45
2023/03/07 11:17:26;;;;;;;;;;;;;;;;;;5053871;28;1732;-44
2023/03/07 11:19:54;;;;;;;;;;;;;;;;;;5053934;28;2128;-46
2023/03/07 11:22:37;;;;;;;;;;;;;;;;;;5053708;28;2045;-45
2023/03/07 11:25:07;;;;;;;;;;;;;;;;;;5053701;28;2041;-50
2023/03/07 11:27:53;;;;;;;;;;;;;;;;;;5053779;28;1975;-46
2023/03/07 11:30:26;;;;;;;;;;;;;;;;;;5053530;28;1997;-45
2023/03/07 11:33:06;;;;;;;;;;;;;;;;;;5053215;28;2157;-46
2023/03/07 11:35:36;;;;;;;;;;;;;;;;;;5053082;28;1779;-42
2023/03/07 11:38:07;;;;;;;;;;;;;;;;;;5053309;28;1925;-42
2023/03/07 11:40:37;;;;;;;;;;;;;;;;;;5053428;28;2225;-45
2023/03/07 11:43:12;;;;;;;;;;;;;;;;;;5052336;28;2056;-50
2023/03/07 11:45:50;;;;;;;;;;;;;;;;;;5053099;28;2098;-43
2023/03/07 11:48:21;;;;;;;;;;;;;;;;;;5053521;28;2160;-44
2023/03/07 11:50:52;;;;;;;;;;;;;;;;;;5053142;28;1754;-44
2023/03/07 11:53:38;;;;;;;;;;;;;;;;;;5053204;28;2133;-42
2023/03/07 11:56:31;;;;;;;;;;;;;;;;;;5053376;28;1975;-44
2023/03/07 11:59:10;;;;;;;;;;;;;;;;;;5045376;28;1977;-45
2023/03/07 12:01:38;;;;;;;;;;;;;;;;;;5053051;28;1771;-44
2023/03/07 12:04:10;;;;;;;;;;;;;;;;;;5052935;28;2396;-43
2023/03/07 12:06:49;;;;;;;;;;;;;;;;;;5053013;28;1940;-44
2023/03/07 12:09:28;;;;;;;;;;;;;;;;;;5053136;28;2019;-44
2023/03/07 12:11:59;;;;;;;;;;;;;;;;;;5068044;28;2022;-43
2023/03/07 12:14:38;;;;;;;;;;;;;;;;;;5052968;28;1770;-43
2023/03/07 12:17:21;;;;;;;;;;;;;;;;;;5052898;28;1955;-48
2023/03/07 12:20:00;;;;;;;;;;;;;;;;;;5052857;28;1976;-45
2023/03/07 12:22:33;;;;;;;;;;;;;;;;;;5052726;28;1789;-44
2023/03/07 12:25:15;;;;;;;;;;;;;;;;;;5052362;28;2000;-49
2023/03/07 12:27:46;;;;;;;;;;;;;;;;;;5052638;28;2049;-45
2023/03/07 12:30:36;;;;;;;;;;;;;;;;;;5052369;28;1397;-46
2023/03/07 12:33:05;;;;;;;;;;;;;;;;;;5042025;28;1737;-50
2023/03/07 12:35:44;;;;;;;;;;;;;;;;;;5052034;28;2133;-49
2023/03/07 12:38:20;;;;;;;;;;;;;;;;;;5052349;28;2130;-48
2023/03/07 12:40:50;;;;;;;;;;;;;;;;;;5052485;28;1947;-45
2023/03/07 12:43:32;;;;;;;;;;;;;;;;;;5052484;28;2361;-51
2023/03/07 12:46:23;;;;;;;;;;;;;;;;;;5052259;28;1999;-50
2023/03/07 12:48:59;;;;;;;;;;;;;;;;;;5042347;28;2197;-49
2023/03/07 12:51:29;;;;;;;;;;;;;;;;;;5052229;28;1995;-45
2023/03/07 12:54:00;;;;;;;;;;;;;;;;;;5052012;28;1997;-43
2023/03/07 12:56:31;;;;;;;;;;;;;;;;;;5051932;28;1964;-45
2023/03/07 12:59:09;;;;;;;;;;;;;;;;;;5051954;28;1936;-46
2023/03/07 13:01:40;;;;;;;;;;;;;;;;;;5051343;28;1982;-46
2023/03/07 13:04:31;;;;;;;;;;;;;;;;;;5051491;28;1983;-47
2023/03/07 13:07:19;;;;;;;;;;;;;;;;;;5050652;28;1814;-47
2023/03/07 13:09:48;;;;;;;;;;;;;;;;;;5046339;28;1990;-47
2023/03/07 13:12:15;;;;;;;;;;;;;;;;;;5013646;28;2315;-44
2023/03/07 13:14:43;;;;;;;;;;;;;;;;;;5031709;28;1932;-49
2023/03/07 13:17:30;;;;;;;;;;;;;;;;;;5035771;28;2068;-46
2023/03/07 13:20:17;;;;;;;;;;;;;;;;;;5051231;28;2029;-51
2023/03/07 13:22:44;;;;;;;;;;;;;;;;;;5050784;28;2062;-47
2023/03/07 13:25:25;;;;;;;;;;;;;;;;;;5034048;28;2054;-46
2023/03/07 13:27:57;;;;;;;;;;;;;;;;;;5050396;28;1822;-46
2023/03/07 13:30:25;;;;;;;;;;;;;;;;;;5049658;28;1936;-52
2023/03/07 13:32:55;;;;;;;;;;;;;;;;;;5049804;28;1287;-50
2023/03/07 13:35:34;;;;;;;;;;;;;;;;;;5049647;28;1767;-52
2023/03/07 13:38:20;;;;;;;;;;;;;;;;;;5049449;28;1920;-49
2023/03/07 13:40:52;;;;;;;;;;;;;;;;;;5049466;28;2089;-51
2023/03/07 13:43:22;;;;;;;;;;;;;;;;;;5050400;28;1737;-47
2023/03/07 13:45:56;;;;;;;;;;;;;;;;;;5051435;28;1968;-47
2023/03/07 13:48:30;;;;;;;;;;;;;;;;;;5050968;28;1828;-45
2023/03/07 13:51:00;;;;;;;;;;;;;;;;;;5051055;28;1842;-46
2023/03/07 13:53:30;;;;;;;;;;;;;;;;;;5051158;28;2064;-47
2023/03/07 13:55:57;;;;;;;;;;;;;;;;;;5050893;28;2018;-46
2023/03/07 13:58:32;;;;;;;;;;;;;;;;;;5050993;28;1974;-46
2023/03/07 14:01:03;;;;;;;;;;;;;;;;;;5050688;28;2028;-52
2023/03/07 14:03:32;;;;;;;;;;;;;;;;;;5050902;28;1876;-51
2023/03/07 14:06:03;;;;;;;;;;;;;;;;;;5053506;28;1942;-46
2023/03/07 14:08:32;;;;;;;;;;;;;;;;;;5057630;28;2140;-51
2023/03/07 14:11:00;;;;;;;;;;;;;;;;;;5057546;28;1949;-51
2023/03/07 14:13:27;;;;;;;;;;;;;;;;;;5057364;28;2011;-47
2023/03/07 14:16:00;;;;;;;;;;;;;;;;;;5057787;28;2128;-52
2023/03/07 14:18:39;;;;;;;;;;;;;;;;;;5057522;28;1901;-46
2023/03/07 14:21:15;;;;;;;;;;;;;;;;;;5057468;28;1981;-50
2023/03/07 14:23:51;;;;;;;;;;;;;;;;;;5057393;28;1922;-47
2023/03/07 14:26:21;;;;;;;;;;;;;;;;;;5057473;28;1956;-46
2023/03/07 14:28:50;;;;;;;;;;;;;;;;;;5057642;28;2287;-45
2023/03/07 14:31:24;;;;;;;;;;;;;;;;;;5057304;28;1664;-44
2023/03/07 14:33:52;;;;;;;;;;;;;;;;;;5057295;28;2015;-45
2023/03/07 14:36:19;;;;;;;;;;;;;;;;;;5056934;28;2019;-45
2023/03/07 14:38:47;;;;;;;;;;;;;;;;;;5057427;28;1499;-46
2023/03/07 14:41:19;;;;;;;;;;;;;;;;;;5057214;28;2122;-48
2023/03/07 14:43:46;;;;;;;;;;;;;;;;;;5057240;28;2139;-45
2023/03/07 14:46:22;;;;;;;;;;;;;;;;;;5057172;28;2037;-44
2023/03/07 14:48:51;;;;;;;;;;;;;;;;;;5057198;28;2157;-45
2023/03/07 14:51:21;;;;;;;;;;;;;;;;;;5057336;28;2132;-45
2023/03/07 14:53:48;;;;;;;;;;;;;;;;;;5057209;28;2298;-46
2023/03/07 14:56:31;;;;;;;;;;;;;;;;;;5057121;28;1792;-46
2023/03/07 14:58:59;;;;;;;;;;;;;;;;;;5057342;28;1963;-46
2023/03/07 15:01:31;;;;;;;;;;;;;;;;;;5057267;28;1955;-44
2023/03/07 15:03:58;;;;;;;;;;;;;;;;;;5057168;28;1772;-45
2023/03/07 15:06:26;;;;;;;;;;;;;;;;;;5057507;28;2115;-45
2023/03/07 15:08:57;;;;;;;;;;;;;;;;;;5057093;28;2132;-44
2023/03/07 15:11:31;;;;;;;;;;;;;;;;;;5057059;28;1845;-47
2023/03/07 15:14:02;;;;;;;;;;;;;;;;;;5057187;28;1973;-44
2023/03/07 15:16:36;;;;;;;;;;;;;;;;;;5039227;28;2261;-43
2023/03/07 15:19:15;;;;;;;;;;;;;;;;;;5053853;28;2099;-47
2023/03/07 15:21:44;;;;;;;;;;;;;;;;;;5053749;28;2038;-45
2023/03/07 15:24:16;;;;;;;;;;;;;;;;;;5053230;28;1899;-46
2023/03/07 15:26:51;;;;;;;;;;;;;;;;;;5053187;28;1977;-47
2023/03/07 15:29:23;;;;;;;;;;;;;;;;;;5053688;28;1992;-47
2023/03/07 15:31:56;;;;;;;;;;;;;;;;;;5053753;28;2123;-46
2023/03/07 15:34:29;;;;;;;;;;;;;;;;;;5053479;28;2465;-45
2023/03/07 15:37:32;;;;;;;;;;;;;;;;;;5053573;28;1980;-45
2023/03/07 15:40:00;;;;;;;;;;;;;;;;;;4992074;28;1984;-45
2023/03/07 15:42:28;;;;;;;;;;;;;;;;;;5042496;28;2060;-44
2023/03/07 15:44:56;;;;;;;;;;;;;;;;;;5053436;28;2031;-46
2023/03/07 15:47:25;;;;;;;;;;;;;;;;;;5053118;28;1871;-44
2023/03/07 15:49:57;;;;;;;;;;;;;;;;;;5053371;28;1897;-45
2023/03/07 15:52:24;;;;;;;;;;;;;;;;;;5053336;28;1957;-43
2023/03/07 15:54:52;;;;;;;;;;;;;;;;;;5052908;28;2323;-45
2023/03/07 15:57:21;;;;;;;;;;;;;;;;;;5053253;28;1927;-44
2023/03/07 15:59:54;;;;;;;;;;;;;;;;;;5052688;28;2067;-45
2023/03/07 16:02:33;;;;;;;;;;;;;;;;;;5052907;28;1945;-45
2023/03/07 16:05:02;;;;;;;;;;;;;;;;;;5053348;28;1886;-45
2023/03/07 16:07:29;;;;;;;;;;;;;;;;;;5052976;28;1995;-46
2023/03/07 16:09:56;;;;;;;;;;;;;;;;;;5052671;28;2059;-46
2023/03/07 16:12:24;;;;;;;;;;;;;;;;;;5052788;28;1810;-50
2023/03/07 16:14:52;;;;;;;;;;;;;;;;;;5052799;28;1833;-42
2023/03/07 16:17:23;;;;;;;;;;;;;;;;;;5052719;28;1805;-47
2023/03/07 16:19:50;;;;;;;;;;;;;;;;;;5052427;28;1977;-45
2023/03/07 16:22:18;;;;;;;;;;;;;;;;;;5052729;28;1999;-49
2023/03/07 16:24:45;;;;;;;;;;;;;;;;;;5052377;28;1943;-45
2023/03/07 16:27:17;;;;;;;;;;;;;;;;;;5052553;28;2079;-51
2023/03/07 16:29:44;;;;;;;;;;;;;;;;;;5052091;28;2047;-46
2023/03/07 16:32:14;;;;;;;;;;;;;;;;;;5052625;28;2158;-45
2023/03/07 16:34:42;;;;;;;;;;;;;;;;;;5052334;28;1896;-47
2023/03/07 16:37:10;;;;;;;;;;;;;;;;;;5052036;28;1815;-45
2023/03/07 16:39:37;;;;;;;;;;;;;;;;;;5052393;28;2166;-45
2023/03/07 16:42:06;;;;;;;;;;;;;;;;;;5052703;28;2143;-44
2023/03/07 16:44:37;;;;;;;;;;;;;;;;;;5052219;28;1941;-49
2023/03/07 16:47:08;;;;;;;;;;;;;;;;;;5052192;28;1764;-45
2023/03/07 16:49:35;;;;;;;;;;;;;;;;;;5052022;28;1880;-44
2023/03/07 16:52:03;;;;;;;;;;;;;;;;;;5052146;28;2148;-44
2023/03/07 16:54:32;;;;;;;;;;;;;;;;;;5052431;28;2118;-48
2023/03/07 16:57:00;;;;;;;;;;;;;;;;;;5051937;28;1638;-45
2023/03/07 16:59:33;;;;;;;;;;;;;;;;;;5052011;28;1859;-44
2023/03/07 17:02:00;;;;;;;;;;;;;;;;;;5051632;28;1961;-46
2023/03/07 17:04:27;;;;;;;;;;;;;;;;;;5051529;28;2087;-46
2023/03/07 17:06:55;;;;;;;;;;;;;;;;;;5051866;28;1954;-45
2023/03/07 17:09:30;;;;;;;;;;;;;;;;;;5051824;28;1841;-48
2023/03/07 17:11:58;;;;;;;;;;;;;;;;;;5051535;28;1919;-44
2023/03/07 17:14:25;;;;;;;;;;;;;;;;;;5051784;28;1992;-46
2023/03/07 17:16:52;;;;;;;;;;;;;;;;;;5051418;28;2001;-45
2023/03/07 17:19:24;;;;;;;;;;;;;;;;;;5051631;28;1965;-46
2023/03/07 17:21:51;;;;;;;;;;;;;;;;;;5051529;28;2024;-44
2023/03/07 17:24:19;;;;;;;;;;;;;;;;;;5051426;28;2052;-45